Time;durP1;ratioP1;P1;durP2;ratioP2;P2;SDS_P1;SDS_P2;PMS_P1;PMS_P2;Temp;Humidity;BMP_temperature;BMP_pressure;BME280_temperature;BME280_humidity;BME280_pressure;Samples;Min_cycle;Max_cycle;Signal;HPM_P1;HPM_P2
2023/02/01 00:00:44;;;;;;;;;;;;;;;22.47;19.34;97627.41;5016726;28;1979;-76
2023/02/01 00:03:12;;;;;;;;;;;;;;;22.14;20.01;97633.41;5017944;28;971;-76
2023/02/01 00:05:38;;;;;;;;;;;;;;;22.59;19.05;97635.06;5018229;28;896;-76
2023/02/01 00:08:03;;;;;;;;;;;;;;;22.67;19.33;97636.38;5018357;28;908;-76
2023/02/01 00:10:29;;;;;;;;;;;;;;;22.47;19.30;97635.91;5000225;28;988;-76
2023/02/01 00:12:54;;;;;;;;;;;;;;;22.40;19.63;97639.00;5018003;28;955;-76
2023/02/01 00:15:20;;;;;;;;;;;;;;;22.51;19.43;97633.75;5017578;28;908;-77
2023/02/01 00:17:46;;;;;;;;;;;;;;;22.67;19.26;97627.09;5017589;28;901;-76
2023/02/01 00:20:11;;;;;;;;;;;;;;;22.98;18.79;97630.78;5000134;28;1914;-77
2023/02/01 00:22:36;;;;;;;;;;;;;;;22.23;19.80;97627.84;5017676;28;901;-76
2023/02/01 00:25:02;;;;;;;;;;;;;;;22.91;18.97;97627.44;5017576;28;893;-76
2023/02/01 00:27:27;;;;;;;;;;;;;;;22.65;19.39;97633.22;5017540;28;963;-76
2023/02/01 00:29:56;;;;;;;;;;;;;;;22.64;19.07;97631.66;5017567;28;873;-76
2023/02/01 00:32:21;;;;;;;;;;;;;;;22.01;20.20;97629.78;4999138;28;1059;-76
2023/02/01 00:34:47;;;;;;;;;;;;;;;22.85;19.10;97636.53;5017325;28;962;-76
2023/02/01 00:37:12;;;;;;;;;;;;;;;22.87;18.87;97636.84;4999835;28;1271;-76
2023/02/01 00:39:37;;;;;;;;;;;;;;;22.40;19.54;97644.66;5017103;28;1910;-76
2023/02/01 00:42:03;;;;;;;;;;;;;;;22.50;19.36;97644.28;4999491;28;886;-76
2023/02/01 00:44:32;;;;;;;;;;;;;;;22.22;19.50;97643.25;5017354;28;908;-76
2023/02/01 00:46:58;;;;;;;;;;;;;;;22.41;19.69;97647.03;5017324;28;932;-76
2023/02/01 00:49:24;;;;;;;;;;;;;;;22.24;19.64;97643.59;4999318;28;1003;-76
2023/02/01 00:51:49;;;;;;;;;;;;;;;22.85;19.02;97636.53;4999820;28;1112;-76
2023/02/01 00:54:14;;;;;;;;;;;;;;;22.40;19.49;97633.34;5017084;28;952;-76
2023/02/01 00:56:40;;;;;;;;;;;;;;;22.57;19.14;97648.91;5016994;28;916;-76
2023/02/01 00:59:05;;;;;;;;;;;;;;;22.71;19.15;97642.72;5016991;28;1915;-76
2023/02/01 01:01:31;;;;;;;;;;;;;;;22.47;19.19;97642.38;4999384;28;1200;-76
2023/02/01 01:03:57;;;;;;;;;;;;;;;22.72;19.09;97647.13;5016566;28;928;-76
2023/02/01 01:06:23;;;;;;;;;;;;;;;22.80;19.16;97645.63;4999609;28;962;-76
2023/02/01 01:08:50;;;;;;;;;;;;;;;23.05;18.64;97635.41;4998817;28;1246;-76
2023/02/01 01:11:17;;;;;;;;;;;;;;;22.66;19.04;97640.47;4999281;28;1578;-77
2023/02/01 01:13:42;;;;;;;;;;;;;;;22.33;19.61;97646.50;5016640;28;929;-76
2023/02/01 01:16:08;;;;;;;;;;;;;;;22.42;19.46;97642.16;4999522;28;931;-76
2023/02/01 01:18:34;;;;;;;;;;;;;;;22.61;19.04;97638.22;4998964;28;973;-76
2023/02/01 01:20:59;;;;;;;;;;;;;;;22.05;19.87;97636.91;4999158;28;1910;-76
2023/02/01 01:23:25;;;;;;;;;;;;;;;22.19;19.54;97635.66;4999111;28;1186;-76
2023/02/01 01:25:50;;;;;;;;;;;;;;;22.10;19.89;97633.53;5016550;28;905;-77
2023/02/01 01:28:16;;;;;;;;;;;;;;;22.57;19.03;97637.56;5016426;28;1020;-75
2023/02/01 01:30:41;;;;;;;;;;;;;;;22.52;19.33;97638.94;4999023;28;1135;-76
2023/02/01 01:33:06;;;;;;;;;;;;;;;22.15;19.66;97637.81;4998935;28;1194;-76
2023/02/01 01:35:32;;;;;;;;;;;;;;;22.51;19.42;97634.53;5016608;28;1059;-77
2023/02/01 01:37:58;;;;;;;;;;;;;;;22.25;19.32;97633.84;4998895;28;1246;-76
2023/02/01 01:40:23;;;;;;;;;;;;;;;23.07;18.80;97641.41;4998412;28;1910;-76
2023/02/01 01:42:53;;;;;;;;;;;;;;;22.73;18.75;97634.53;4998892;28;1369;-76
2023/02/01 01:45:18;;;;;;;;;;;;;;;22.74;18.87;97627.63;4999180;28;1269;-76
2023/02/01 01:47:44;;;;;;;;;;;;;;;22.59;19.02;97630.19;4998652;28;1179;-76
2023/02/01 01:50:12;;;;;;;;;;;;;;;22.06;19.70;97624.31;4998638;28;1414;-77
2023/02/01 01:52:37;;;;;;;;;;;;;;;22.07;20.01;97633.63;4961959;28;1331;-76
2023/02/01 01:55:03;;;;;;;;;;;;;;;22.52;19.26;97641.00;4961770;28;1112;-76
2023/02/01 01:57:31;;;;;;;;;;;;;;;22.77;18.98;97634.41;4978028;28;1349;-76
2023/02/01 02:00:01;;;;;;;;;;;;;;;22.66;19.25;97640.47;4961826;28;1973;-76
2023/02/01 02:02:27;;;;;;;;;;;;;;;22.13;19.86;97631.06;4977988;28;1261;-76
2023/02/01 02:04:52;;;;;;;;;;;;;;;22.67;19.01;97636.38;4977857;28;1214;-76
2023/02/01 02:07:19;;;;;;;;;;;;;;;22.75;19.19;97643.38;4993939;28;1534;-76
2023/02/01 02:09:45;;;;;;;;;;;;;;;22.68;19.15;97643.63;4961909;28;1177;-76
2023/02/01 02:12:10;;;;;;;;;;;;;;;22.46;19.35;97645.66;4978058;28;957;-77
2023/02/01 02:14:36;;;;;;;;;;;;;;;22.44;19.55;97651.81;4977955;28;1351;-77
2023/02/01 02:17:01;;;;;;;;;;;;;;;22.76;18.96;97644.97;4977870;28;936;-77
2023/02/01 02:19:27;;;;;;;;;;;;;;;22.29;19.50;97651.50;4996166;28;1950;-76
2023/02/01 02:21:52;;;;;;;;;;;;;;;22.43;19.25;97647.34;4981643;28;1416;-76
2023/02/01 02:24:36;;;;;;;;;;;;;;;22.58;19.25;97641.97;4997702;28;1092;-76
2023/02/01 02:27:25;;;;;;;;;;;;;;;22.63;19.28;97647.84;4997752;28;1179;-76
2023/02/01 02:30:08;;;;;;;;;;;;;;;22.33;19.55;97643.69;4920477;29;949;-76
2023/02/01 02:32:39;;;;;;;;;;;;;;;22.78;18.99;97636.78;4920489;29;1003;-76
2023/02/01 02:35:25;;;;;;;;;;;;;;;22.56;19.09;97642.44;4920884;29;1011;-76
2023/02/01 02:37:55;;;;;;;;;;;;;;;22.59;19.24;97649.25;4920415;29;1308;-76
2023/02/01 02:40:37;;;;;;;;;;;;;;;22.84;18.99;97636.97;4904633;29;1915;-76
2023/02/01 02:48:52;;;;;;;;;;;;;;;22.84;18.64;97634.13;4867235;29;1214;-76
2023/02/01 03:05:06;;;;;;;;;;;;;;;22.61;19.38;97632.56;4883140;29;966;-76
2023/02/01 03:07:51;;;;;;;;;;;;;;;22.15;19.46;97628.53;4899643;29;1185;-76
2023/02/01 03:10:39;;;;;;;;;;;;;;;22.91;18.82;97633.13;4920059;29;1169;-76
2023/02/01 03:13:17;;;;;;;;;;;;;;;22.96;18.72;97635.38;4868235;29;1260;-75
2023/02/01 03:15:45;;;;;;;;;;;;;;;22.39;19.52;97637.44;4885534;29;1391;-76
2023/02/01 03:18:12;;;;;;;;;;;;;;;22.84;18.90;97637.75;4900810;29;1120;-77
2023/02/01 03:20:38;;;;;;;;;;;;;;;22.23;19.70;97642.00;4885348;29;1918;-77
2023/02/01 03:23:06;;;;;;;;;;;;;;;22.23;19.24;97642.00;4900710;29;1024;-76
2023/02/01 03:25:32;;;;;;;;;;;;;;;22.74;18.91;97641.00;4916069;29;1142;-76
2023/02/01 03:28:00;;;;;;;;;;;;;;;22.27;19.23;97645.50;4898590;29;1251;-76
2023/02/01 03:30:26;;;;;;;;;;;;;;;22.04;19.73;97645.88;4906421;29;1397;-76
2023/02/01 03:33:00;;;;;;;;;;;;;;;22.25;19.35;97645.16;4922686;29;1013;-75
2023/02/01 03:35:34;;;;;;;;;;;;;;;22.56;19.21;97635.97;4908674;29;1232;-76
2023/02/01 03:38:18;;;;;;;;;;;;;;;22.36;19.48;97645.56;4938310;29;1063;-76
2023/02/01 03:40:45;;;;;;;;;;;;;;;22.59;19.28;97647.22;4938503;29;1980;-76
2023/02/01 03:43:11;;;;;;;;;;;;;;;22.86;18.57;97638.09;4900116;29;1213;-75
2023/02/01 03:45:43;;;;;;;;;;;;;;;22.77;18.64;97652.22;4885061;29;1556;-76
2023/02/01 03:48:10;;;;;;;;;;;;;;;22.88;18.67;97651.84;4884995;29;1082;-77
2023/02/01 03:50:36;;;;;;;;;;;;;;;22.52;19.15;97658.00;4924911;29;1421;-76
2023/02/01 03:53:11;;;;;;;;;;;;;;;22.67;18.73;97664.75;4941635;29;1025;-76
2023/02/01 03:55:37;;;;;;;;;;;;;;;23.23;18.33;97677.31;4922458;29;1093;-76
2023/02/01 03:58:15;;;;;;;;;;;;;;;22.38;19.29;97673.47;4922098;29;1052;-76
2023/02/01 04:00:43;;;;;;;;;;;;;;;22.59;19.03;97680.44;4922384;29;1907;-77
2023/02/01 04:03:09;;;;;;;;;;;;;;;22.05;19.94;97675.78;4921847;29;1177;-76
2023/02/01 04:05:35;;;;;;;;;;;;;;;22.51;19.29;97674.22;4938309;29;924;-76
2023/02/01 04:08:04;;;;;;;;;;;;;;;22.26;19.35;97674.28;4922359;29;1196;-76
2023/02/01 04:10:30;;;;;;;;;;;;;;;22.15;19.38;97674.66;4937702;29;1003;-76
2023/02/01 04:12:55;;;;;;;;;;;;;;;22.18;19.68;97685.09;4922072;29;956;-76
2023/02/01 04:15:21;;;;;;;;;;;;;;;22.60;19.16;97682.03;4994770;28;1003;-76
2023/02/01 04:17:46;;;;;;;;;;;;;;;22.48;19.13;97680.00;4995845;28;904;-76
2023/02/01 04:20:12;;;;;;;;;;;;;;;22.09;19.46;97682.13;4995776;28;1910;-76
2023/02/01 04:22:37;;;;;;;;;;;;;;;22.44;19.40;97679.38;4995642;28;1011;-76
2023/02/01 04:25:03;;;;;;;;;;;;;;;21.95;19.63;97680.56;4979705;28;1082;-77
2023/02/01 04:27:28;;;;;;;;;;;;;;;22.13;19.41;97687.72;5014526;28;1013;-76
2023/02/01 04:29:53;;;;;;;;;;;;;;;22.53;19.22;97682.25;5000033;28;1034;-75
2023/02/01 04:32:22;;;;;;;;;;;;;;;22.56;19.26;97684.19;5017565;28;935;-76
2023/02/01 04:34:47;;;;;;;;;;;;;;;22.26;19.17;97692.09;4999816;28;999;-76
2023/02/01 04:37:13;;;;;;;;;;;;;;;22.65;19.06;97698.44;5017444;28;897;-77
2023/02/01 04:39:38;;;;;;;;;;;;;;;22.49;18.98;97702.25;5017224;28;1910;-76
2023/02/01 04:42:03;;;;;;;;;;;;;;;22.45;19.30;97700.78;4998510;28;1088;-76
2023/02/01 04:44:29;;;;;;;;;;;;;;;22.71;18.94;97704.31;5017392;28;959;-76
2023/02/01 04:46:54;;;;;;;;;;;;;;;22.83;18.79;97695.75;4999274;28;923;-76
2023/02/01 04:49:21;;;;;;;;;;;;;;;22.17;19.26;97703.31;4999964;28;955;-76
2023/02/01 04:51:46;;;;;;;;;;;;;;;22.63;18.93;97704.56;4998528;28;1043;-76
2023/02/01 04:54:12;;;;;;;;;;;;;;;22.63;19.08;97707.41;4999870;28;926;-76
2023/02/01 04:56:37;;;;;;;;;;;;;;;22.60;18.85;97704.72;4998314;28;1213;-76
2023/02/01 04:59:03;;;;;;;;;;;;;;;22.18;19.32;97707.78;5016618;28;1009;-75
2023/02/01 05:01:28;;;;;;;;;;;;;;;22.90;18.93;97710.94;5016888;28;1914;-76
2023/02/01 05:03:54;;;;;;;;;;;;;;;22.65;18.94;97715.47;4999468;28;878;-76
2023/02/01 05:06:20;;;;;;;;;;;;;;;22.75;18.72;97722.81;4999618;28;968;-76
2023/02/01 05:08:45;;;;;;;;;;;;;;;22.19;19.33;97734.06;4999177;28;1032;-76
2023/02/01 05:13:47;;;;;;;;;;;;;;;22.21;19.54;97720.22;5016899;28;926;-76
2023/02/01 05:13:56;;;;;;;;;;;;;;;22.43;19.28;97729.56;4994115;28;990;-76
2023/02/01 05:16:21;;;;;;;;;;;;;;;22.68;19.11;97717.38;4994931;28;994;-76
2023/02/01 05:18:47;;;;;;;;;;;;;;;22.69;18.94;97718.97;4994451;28;951;-76
2023/02/01 05:21:12;;;;;;;;;;;;;;;22.91;18.80;97721.06;4977990;28;1910;-76
2023/02/01 05:24:09;;;;;;;;;;;;;;;22.98;18.48;97727.25;4994385;28;955;-76
2023/02/01 05:26:23;;;;;;;;;;;;;;;22.69;18.91;97724.66;4994687;28;1120;-76
2023/02/01 05:28:48;;;;;;;;;;;;;;;22.60;18.92;97724.56;4994525;28;915;-76
2023/02/01 05:31:14;;;;;;;;;;;;;;;22.73;18.71;97719.63;4994707;28;1031;-76
2023/02/01 05:33:39;;;;;;;;;;;;;;;22.32;19.34;97729.16;4978197;28;1963;-76
2023/02/01 05:36:05;;;;;;;;;;;;;;;21.87;19.66;97732.25;4994248;28;981;-76
2023/02/01 05:38:30;;;;;;;;;;;;;;;21.82;19.94;97728.72;4994137;28;1005;-77
2023/02/01 05:40:56;;;;;;;;;;;;;;;22.07;19.68;97741.28;4994393;28;1939;-76
2023/02/01 05:43:21;;;;;;;;;;;;;;;22.03;19.34;97735.75;4974497;28;950;-76
2023/02/01 05:45:47;;;;;;;;;;;;;;;22.17;19.20;97740.16;4991384;28;1035;-76
2023/02/01 05:48:12;;;;;;;;;;;;;;;21.99;19.50;97728.59;4994319;28;1016;-76
2023/02/01 05:50:38;;;;;;;;;;;;;;;21.71;19.99;97738.78;4994201;28;1014;-76
2023/02/01 05:53:07;;;;;;;;;;;;;;;21.44;20.22;97739.22;4994259;28;973;-76
2023/02/01 05:55:33;;;;;;;;;;;;;;;21.78;19.97;97753.53;4994616;28;981;-77
2023/02/01 05:57:58;;;;;;;;;;;;;;;22.24;19.18;97745.63;4994182;28;963;-76
2023/02/01 06:00:24;;;;;;;;;;;;;;;22.42;19.25;97747.06;4994341;28;1943;-76
2023/02/01 06:02:50;;;;;;;;;;;;;;;22.53;18.79;97751.09;4993961;28;975;-76
2023/02/01 06:05:16;;;;;;;;;;;;;;;22.55;19.08;97745.00;4994383;28;1066;-76
2023/02/01 06:07:41;;;;;;;;;;;;;;;22.25;19.03;97752.88;4994050;28;1058;-76
2023/02/01 06:10:08;;;;;;;;;;;;;;;22.17;19.11;97750.72;4994499;28;1003;-76
2023/02/01 06:12:33;;;;;;;;;;;;;;;21.88;19.41;97753.66;4994293;28;921;-76
2023/02/01 06:14:59;;;;;;;;;;;;;;;21.97;19.29;97748.91;5011129;28;928;-76
2023/02/01 06:17:24;;;;;;;;;;;;;;;22.24;19.00;97761.84;5015923;28;920;-76
2023/02/01 06:19:50;;;;;;;;;;;;;;;22.14;19.21;97760.94;5015591;28;1906;-76
2023/02/01 06:22:15;;;;;;;;;;;;;;;22.12;19.27;97759.78;4998649;28;905;-76
2023/02/01 06:24:40;;;;;;;;;;;;;;;22.48;18.96;97762.22;5016001;28;993;-76
2023/02/01 06:27:06;;;;;;;;;;;;;;;21.85;19.29;97770.28;5016092;28;909;-76
2023/02/01 06:29:32;;;;;;;;;;;;;;;21.76;19.64;97772.22;5015906;28;948;-76
2023/02/01 06:31:57;;;;;;;;;;;;;;;21.74;19.61;97769.03;5016060;28;978;-76
2023/02/01 06:34:23;;;;;;;;;;;;;;;22.26;19.18;97759.31;5015783;28;1012;-76
2023/02/01 06:36:48;;;;;;;;;;;;;;;22.36;18.99;97758.97;5015658;28;976;-76
2023/02/01 06:39:15;;;;;;;;;;;;;;;21.76;19.60;97772.22;5014452;28;1040;-76
2023/02/01 06:41:42;;;;;;;;;;;;;;;21.22;20.48;97778.66;5015855;28;1009;-76
2023/02/01 06:44:08;;;;;;;;;;;;;;;21.61;19.64;97771.88;5015710;28;936;-76
2023/02/01 06:46:33;;;;;;;;;;;;;;;22.38;18.88;97771.88;5015949;28;883;-76
2023/02/01 06:48:59;;;;;;;;;;;;;;;22.35;19.00;97771.56;5015605;28;915;-76
2023/02/01 06:51:25;;;;;;;;;;;;;;;22.06;19.27;97762.38;5015931;28;975;-76
2023/02/01 06:53:51;;;;;;;;;;;;;;;22.00;19.31;97764.97;4998198;28;905;-76
2023/02/01 06:56:16;;;;;;;;;;;;;;;22.00;19.21;97781.97;5014389;28;987;-76
2023/02/01 06:58:41;;;;;;;;;;;;;;;22.16;19.35;97778.25;4998058;28;936;-76
2023/02/01 07:01:07;;;;;;;;;;;;;;;22.51;18.84;97787.63;5015763;28;1985;-77
2023/02/01 07:03:33;;;;;;;;;;;;;;;22.35;19.16;97780.06;4998141;28;951;-76
2023/02/01 07:05:58;;;;;;;;;;;;;;;21.54;19.90;97784.19;4999491;28;1784;-76
2023/02/01 07:08:24;;;;;;;;;;;;;;;21.99;19.65;97769.06;5018437;28;927;-76
2023/02/01 07:10:49;;;;;;;;;;;;;;;22.32;19.17;97780.97;5019000;28;994;-76
2023/02/01 07:13:15;;;;;;;;;;;;;;;22.13;19.28;97773.53;5019142;28;964;-76
2023/02/01 07:15:40;;;;;;;;;;;;;;;22.48;19.07;97787.75;5000450;28;1080;-77
2023/02/01 07:18:06;;;;;;;;;;;;;;;22.10;19.41;97780.88;5001635;28;922;-76
2023/02/01 07:20:31;;;;;;;;;;;;;;;22.21;19.30;97791.84;5018575;28;1914;-75
2023/02/01 07:22:57;;;;;;;;;;;;;;;22.32;19.29;97786.63;5018456;28;942;-76
2023/02/01 07:25:22;;;;;;;;;;;;;;;22.54;19.05;97792.41;5018760;28;1140;-76
2023/02/01 07:27:48;;;;;;;;;;;;;;;22.84;18.52;97788.09;5018860;28;959;-76
2023/02/01 07:30:13;;;;;;;;;;;;;;;22.17;19.31;97782.69;5018353;28;905;-76
2023/02/01 07:32:39;;;;;;;;;;;;;;;22.68;18.96;97785.44;5018708;28;892;-76
2023/02/01 07:35:05;;;;;;;;;;;;;;;22.74;18.91;97789.28;5018458;28;1089;-75
2023/02/01 07:37:30;;;;;;;;;;;;;;;22.29;19.06;97796.06;5018432;28;916;-76
2023/02/01 07:39:56;;;;;;;;;;;;;;;22.43;19.13;97796.81;5018343;28;1988;-76
2023/02/01 07:42:21;;;;;;;;;;;;;;;22.56;18.97;97804.06;5000935;28;991;-76
2023/02/01 07:44:46;;;;;;;;;;;;;;;23.20;18.48;97805.94;5000845;28;938;-76
2023/02/01 07:47:12;;;;;;;;;;;;;;;22.57;19.08;97807.69;5018166;28;910;-76
2023/02/01 07:49:37;;;;;;;;;;;;;;;22.39;19.35;97804.69;5018235;28;1024;-76
2023/02/01 07:52:03;;;;;;;;;;;;;;;22.77;19.13;97805.38;5018225;28;1021;-76
2023/02/01 07:54:28;;;;;;;;;;;;;;;23.10;18.51;97810.75;5017850;28;1035;-76
2023/02/01 07:56:54;;;;;;;;;;;;;;;22.53;19.29;97807.81;5018343;28;934;-76
2023/02/01 07:59:19;;;;;;;;;;;;;;;22.70;19.05;97817.00;5018013;28;1985;-76
2023/02/01 08:01:45;;;;;;;;;;;;;;;22.96;18.85;97805.59;5018175;28;966;-76
2023/02/01 08:04:10;;;;;;;;;;;;;;;22.22;19.60;97821.78;5017559;28;1147;-76
2023/02/01 08:06:36;;;;;;;;;;;;;;;22.20;19.86;97823.50;5017617;28;975;-76
2023/02/01 08:09:01;;;;;;;;;;;;;;;22.04;19.97;97810.19;4988420;28;1167;-77
2023/02/01 08:11:27;;;;;;;;;;;;;;;22.17;19.79;97813.84;4998391;28;956;-77
2023/02/01 08:13:52;;;;;;;;;;;;;;;22.38;19.50;97801.03;4998387;28;899;-76
2023/02/01 08:16:18;;;;;;;;;;;;;;;22.54;19.68;97802.97;4997671;28;980;-76
2023/02/01 08:18:44;;;;;;;;;;;;;;;22.18;19.92;97809.78;4980562;28;1123;-76
2023/02/01 08:21:13;;;;;;;;;;;;;;;22.20;19.78;97827.13;4998191;28;1991;-76
2023/02/01 08:23:38;;;;;;;;;;;;;;;22.28;19.84;97828.50;4980707;28;1115;-75
2023/02/01 08:26:11;;;;;;;;;;;;;;;22.34;20.00;97812.50;4997886;28;928;-76
2023/02/01 08:28:37;;;;;;;;;;;;;;;22.20;20.05;97827.13;4980265;28;1095;-76
2023/02/01 08:31:06;;;;;;;;;;;;;;;22.09;20.19;97820.97;4997928;28;982;-75
2023/02/01 08:33:31;;;;;;;;;;;;;;;21.96;20.35;97829.44;4980627;28;1060;-76
2023/02/01 08:35:57;;;;;;;;;;;;;;;21.94;20.36;97834.00;4996617;28;976;-76
2023/02/01 08:38:22;;;;;;;;;;;;;;;21.95;20.13;97827.06;4980638;28;988;-76
2023/02/01 08:40:48;;;;;;;;;;;;;;;21.81;20.47;97833.97;4997615;28;1995;-76
2023/02/01 08:43:14;;;;;;;;;;;;;;;21.89;20.61;97843.84;4997827;28;898;-76
2023/02/01 08:45:39;;;;;;;;;;;;;;;21.87;20.42;97845.56;4980838;28;1074;-76
2023/02/01 08:48:05;;;;;;;;;;;;;;;21.88;20.61;97835.81;4997751;28;911;-76
2023/02/01 08:50:30;;;;;;;;;;;;;;;22.16;20.11;97840.59;4997785;28;1022;-77
2023/02/01 08:52:56;;;;;;;;;;;;;;;22.15;19.91;97839.03;4998112;28;921;-76
2023/02/01 08:55:21;;;;;;;;;;;;;;;22.21;19.98;97830.75;4997667;28;985;-76
2023/02/01 08:57:47;;;;;;;;;;;;;;;22.15;20.21;97833.34;4997777;28;966;-77
2023/02/01 09:00:13;;;;;;;;;;;;;;;21.78;20.37;97827.16;4997687;28;1979;-76
2023/02/01 09:02:38;;;;;;;;;;;;;;;21.69;20.84;97835.53;4997091;28;900;-76
2023/02/01 09:05:04;;;;;;;;;;;;;;;22.14;20.11;97840.28;4997444;28;853;-76
2023/02/01 09:07:29;;;;;;;;;;;;;;;22.24;20.02;97841.97;4997362;28;944;-76
2023/02/01 09:09:56;;;;;;;;;;;;;;;22.25;20.19;97843.56;4997670;28;987;-76
2023/02/01 09:12:21;;;;;;;;;;;;;;;22.12;20.22;97839.91;4996874;28;984;-76
2023/02/01 09:14:47;;;;;;;;;;;;;;;21.74;20.47;97837.81;4997658;28;968;-76
2023/02/01 09:17:13;;;;;;;;;;;;;;;21.50;20.89;97844.97;4979009;28;955;-77
2023/02/01 09:19:39;;;;;;;;;;;;;;;21.75;20.91;97832.94;4996157;28;1926;-76
2023/02/01 09:22:04;;;;;;;;;;;;;;;21.77;20.76;97836.91;4997197;28;995;-76
2023/02/01 09:24:30;;;;;;;;;;;;;;;21.94;20.46;97826.28;4997057;28;932;-76
2023/02/01 09:26:55;;;;;;;;;;;;;;;22.08;20.38;97827.88;4997455;28;1019;-76
2023/02/01 09:29:20;;;;;;;;;;;;;;;22.19;20.14;97819.06;4996474;28;940;-76
2023/02/01 09:31:46;;;;;;;;;;;;;;;22.11;20.40;97815.66;4996776;28;929;-76
2023/02/01 09:34:11;;;;;;;;;;;;;;;21.70;20.72;97813.66;4996581;28;994;-76
2023/02/01 09:36:37;;;;;;;;;;;;;;;21.60;21.14;97826.88;4996774;28;900;-76
2023/02/01 09:39:02;;;;;;;;;;;;;;;21.67;21.05;97815.38;4996937;28;1175;-76
2023/02/01 09:41:42;;;;;;;;;;;;;;;21.92;20.62;97813.84;4996988;28;1979;-76
2023/02/01 09:44:28;;;;;;;;;;;;;;;21.98;20.42;97812.81;4979539;28;1050;-76
2023/02/01 09:46:56;;;;;;;;;;;;;;;22.36;19.94;97803.53;4997148;28;931;-76
2023/02/01 09:49:23;;;;;;;;;;;;;;;22.37;20.27;97802.28;4996867;28;849;-76
2023/02/01 09:51:49;;;;;;;;;;;;;;;22.22;20.26;97786.97;4979285;28;982;-76
2023/02/01 09:54:41;;;;;;;;;;;;;;;21.65;20.99;97795.19;4994692;28;1317;-76
2023/02/01 09:57:08;;;;;;;;;;;;;;;21.59;21.06;97782.84;4952769;28;1544;-76
2023/02/01 09:59:41;;;;;;;;;;;;;;;22.13;20.59;97784.84;4955370;29;1914;-77
2023/02/01 10:02:12;;;;;;;;;;;;;;;22.88;19.56;97783.13;4933141;29;1501;-77
2023/02/01 10:04:37;;;;;;;;;;;;;;;22.17;20.39;97779.84;4954351;28;1562;-76
2023/02/01 10:07:08;;;;;;;;;;;;;;;21.93;20.51;97787.09;4955642;28;978;-77
2023/02/01 10:09:36;;;;;;;;;;;;;;;21.34;21.40;97775.06;4936253;29;1028;-77
2023/02/01 10:12:13;;;;;;;;;;;;;;;21.27;21.74;97776.06;4935974;29;1102;-77
2023/02/01 10:14:53;;;;;;;;;;;;;;;21.72;21.14;97772.34;4936087;29;1031;-77
2023/02/01 10:17:21;;;;;;;;;;;;;;;22.06;20.72;97756.69;4935965;29;943;-77
2023/02/01 10:19:46;;;;;;;;;;;;;;;21.43;21.23;97766.72;4936009;29;1907;-77
2023/02/01 10:22:17;;;;;;;;;;;;;;;22.19;20.33;97760.34;4936233;29;1016;-76
2023/02/01 10:24:57;;;;;;;;;;;;;;;22.03;20.67;97755.59;4936115;29;1080;-78
2023/02/01 10:27:23;;;;;;;;;;;;;;;21.83;20.73;97755.81;4936001;29;991;-76
2023/02/01 10:29:51;;;;;;;;;;;;;;;22.09;20.46;97750.13;4935717;29;1257;-77
2023/02/01 10:32:19;;;;;;;;;;;;;;;22.03;20.46;97747.09;4920545;29;967;-77
2023/02/01 10:34:46;;;;;;;;;;;;;;;22.41;20.35;97748.31;4937151;28;1530;-77
2023/02/01 10:37:19;;;;;;;;;;;;;;;22.23;20.38;97744.03;4958513;28;1255;-77
2023/02/01 10:39:48;;;;;;;;;;;;;;;21.82;20.80;97757.06;4962586;28;1961;-77
2023/02/01 10:42:14;;;;;;;;;;;;;;;22.24;20.32;97742.78;4997535;28;981;-77
2023/02/01 10:44:42;;;;;;;;;;;;;;;22.19;20.59;97729.19;4981337;28;1065;-77
2023/02/01 10:47:09;;;;;;;;;;;;;;;22.18;20.67;97724.78;4981281;28;924;-77
2023/02/01 10:49:38;;;;;;;;;;;;;;;21.94;20.95;97726.34;4997302;28;1001;-77
2023/02/01 10:52:20;;;;;;;;;;;;;;;22.53;20.40;97733.28;4978358;28;1426;-77
2023/02/01 10:54:46;;;;;;;;;;;;;;;22.15;20.72;97725.66;4970241;28;1544;-77
2023/02/01 10:57:21;;;;;;;;;;;;;;;22.26;20.52;97728.94;4988351;28;1621;-77
2023/02/01 10:59:47;;;;;;;;;;;;;;;22.30;20.54;97729.63;4985855;28;1915;-77
2023/02/01 11:02:18;;;;;;;;;;;;;;;22.43;20.53;97721.06;4991187;28;1556;-77
2023/02/01 11:04:44;;;;;;;;;;;;;;;22.08;20.54;97732.34;5000829;28;1589;-76
2023/02/01 11:07:15;;;;;;;;;;;;;;;22.41;20.34;97728.47;5018890;28;1645;-76
2023/02/01 11:09:41;;;;;;;;;;;;;;;22.28;20.43;97717.94;4998306;28;1543;-76
2023/02/01 11:12:20;;;;;;;;;;;;;;;22.65;20.28;97729.66;5017675;28;1273;-76
2023/02/01 11:14:45;;;;;;;;;;;;;;;21.79;20.96;97726.00;5010726;28;1436;-76
2023/02/01 11:17:14;;;;;;;;;;;;;;;22.48;20.28;97737.50;5000574;28;1495;-76
2023/02/01 11:19:44;;;;;;;;;;;;;;;21.91;20.84;97722.38;5018187;28;1985;-77
2023/02/01 11:22:09;;;;;;;;;;;;;;;22.44;20.38;97724.72;5018697;28;1482;-76
2023/02/01 11:24:38;;;;;;;;;;;;;;;22.54;20.43;97706.56;5009339;28;1467;-77
2023/02/01 11:27:05;;;;;;;;;;;;;;;22.50;20.23;97711.53;4999601;28;1540;-77
2023/02/01 11:29:38;;;;;;;;;;;;;;;22.27;20.37;97710.69;5018444;28;1551;-78
2023/02/01 11:32:03;;;;;;;;;;;;;;;22.73;20.38;97699.75;5000702;28;1457;-78
2023/02/01 11:34:49;;;;;;;;;;;;;;;22.12;20.92;97709.56;5009023;28;1724;-78
2023/02/01 11:37:35;;;;;;;;;;;;;;;22.84;20.06;97703.00;5017712;28;1441;-78
2023/02/01 11:40:01;;;;;;;;;;;;;;;22.72;20.02;97701.03;5016734;28;1991;-78
2023/02/01 11:42:28;;;;;;;;;;;;;;;22.63;20.21;97698.88;5005916;28;1498;-78
2023/02/01 11:45:13;;;;;;;;;;;;;;;22.48;20.35;97694.97;5000443;28;1560;-78
2023/02/01 11:47:39;;;;;;;;;;;;;;;22.08;21.12;97700.38;5018052;28;1547;-78
2023/02/01 11:50:09;;;;;;;;;;;;;;;22.59;20.61;97695.41;5000557;28;1496;-78
2023/02/01 11:52:52;;;;;;;;;;;;;;;22.09;21.02;97699.13;5005416;28;1534;-78
2023/02/01 11:55:33;;;;;;;;;;;;;;;22.20;20.77;97690.31;5003206;28;1462;-78
2023/02/01 11:58:14;;;;;;;;;;;;;;;21.97;21.17;97691.44;4998500;28;903;-77
2023/02/01 12:00:49;;;;;;;;;;;;;;;22.47;20.86;97692.59;4998473;28;1906;-78
2023/02/01 12:03:17;;;;;;;;;;;;;;;22.72;20.33;97689.69;4998413;28;925;-78
2023/02/01 12:05:47;;;;;;;;;;;;;;;22.58;20.65;97690.19;4999294;28;896;-78
2023/02/01 12:08:21;;;;;;;;;;;;;;;22.15;20.94;97697.34;4997646;28;977;-78
2023/02/01 12:11:02;;;;;;;;;;;;;;;22.29;20.90;97698.91;4998164;28;985;-78
2023/02/01 12:13:31;;;;;;;;;;;;;;;22.51;20.63;97690.44;4997018;28;1105;-78
2023/02/01 12:16:02;;;;;;;;;;;;;;;22.26;20.63;97697.75;4998450;28;1040;-78
2023/02/01 12:18:35;;;;;;;;;;;;;;;22.42;20.69;97688.31;4996809;28;1440;-78
2023/02/01 12:21:18;;;;;;;;;;;;;;;22.10;20.83;97683.72;4996783;28;1903;-78
2023/02/01 12:23:59;;;;;;;;;;;;;;;22.35;20.59;97685.72;4998231;28;891;-78
2023/02/01 12:26:24;;;;;;;;;;;;;;;22.66;20.38;97690.72;4997953;28;972;-78
2023/02/01 12:28:59;;;;;;;;;;;;;;;22.69;20.29;97690.63;4997843;28;974;-78
2023/02/01 12:31:43;;;;;;;;;;;;;;;22.48;20.46;97685.69;4996763;28;1008;-78
2023/02/01 12:34:17;;;;;;;;;;;;;;;22.32;20.52;97681.75;4997686;28;926;-77
2023/02/01 12:36:48;;;;;;;;;;;;;;;22.41;20.35;97691.59;4998119;28;908;-77
2023/02/01 12:39:17;;;;;;;;;;;;;;;22.67;20.59;97687.44;4996889;28;1109;-78
2023/02/01 12:42:01;;;;;;;;;;;;;;;22.50;20.32;97683.97;4997589;28;1979;-78
2023/02/01 12:44:30;;;;;;;;;;;;;;;22.86;20.06;97671.34;4996430;28;1665;-78
2023/02/01 12:47:00;;;;;;;;;;;;;;;22.56;20.53;97672.84;4975536;28;1077;-78
2023/02/01 12:49:28;;;;;;;;;;;;;;;22.28;20.75;97677.47;4943431;28;905;-78
2023/02/01 12:51:55;;;;;;;;;;;;;;;22.20;20.77;97676.91;4975694;28;1037;-77
2023/02/01 12:54:20;;;;;;;;;;;;;;;22.49;20.57;97675.94;4959371;28;966;-77
2023/02/01 12:56:47;;;;;;;;;;;;;;;22.64;20.37;97671.34;4975827;28;1046;-78
2023/02/01 12:59:36;;;;;;;;;;;;;;;22.54;20.70;97672.53;4943422;28;984;-78
2023/02/01 13:02:04;;;;;;;;;;;;;;;21.82;21.48;97672.09;4880613;29;1100;-78
2023/02/01 13:04:37;;;;;;;;;;;;;;;21.91;20.97;97670.59;4879407;29;1094;-78
2023/02/01 13:07:05;;;;;;;;;;;;;;;21.69;21.75;97664.84;4880591;29;1073;-78
2023/02/01 13:09:43;;;;;;;;;;;;;;;21.71;21.46;97663.16;4880442;29;978;-78
2023/02/01 13:12:13;;;;;;;;;;;;;;;22.14;20.99;97669.47;4880585;29;948;-78
2023/02/01 13:14:42;;;;;;;;;;;;;;;22.21;20.85;97658.66;4880729;29;982;-77
2023/02/01 13:17:12;;;;;;;;;;;;;;;22.32;20.63;97659.06;4880640;29;1004;-78
2023/02/01 13:19:43;;;;;;;;;;;;;;;21.71;21.37;97673.66;4880525;29;1923;-78
2023/02/01 13:22:20;;;;;;;;;;;;;;;21.83;21.33;97661.53;4880514;29;970;-78
2023/02/01 13:25:06;;;;;;;;;;;;;;;22.12;20.88;97671.94;4877184;29;952;-78
2023/02/01 13:27:32;;;;;;;;;;;;;;;22.44;20.70;97656.69;4898696;29;1025;-78